Time;durP1;ratioP1;P1;durP2;ratioP2;P2;SDS_P1;SDS_P2;PMS_P1;PMS_P2;Temp;Humidity;BMP_temperature;BMP_pressure;BME280_temperature;BME280_humidity;BME280_pressure;Samples;Min_cycle;Max_cycle;Signal;HPM_P1;HPM_P2
2023/03/23 00:01:19;;;;;;;9.13;5.40;;;;;;;7.95;100.00;98469.44;5137433;28;20111;-62
2023/03/23 00:03:46;;;;;;;10.40;5.82;;;;;;;7.85;100.00;98454.47;5137613;28;20062;-67
2023/03/23 00:06:16;;;;;;;11.45;5.80;;;;;;;8.02;100.00;98480.47;5137448;27;20139;-63
2023/03/23 00:08:46;;;;;;;9.82;6.13;;;;;;;7.97;100.00;98478.06;5137463;28;20058;-65
2023/03/23 00:11:14;;;;;;;11.43;6.07;;;;;;;8.06;100.00;98467.66;5137738;28;20047;-59
2023/03/23 00:13:42;;;;;;;10.13;5.25;;;;;;;7.99;100.00;98475.75;5137107;28;20043;-64
2023/03/23 00:16:16;;;;;;;10.63;6.30;;;;;;;7.98;100.00;98520.59;5137727;28;20047;-62
2023/03/23 00:18:43;;;;;;;10.30;5.82;;;;;;;7.90;100.00;98549.69;5137221;28;20051;-64
2023/03/23 00:21:09;;;;;;;12.93;7.18;;;;;;;7.99;100.00;98595.84;5137727;28;20137;-59
2023/03/23 00:23:35;;;;;;;9.90;6.03;;;;;;;8.20;100.00;98607.19;5137132;28;20482;-61
2023/03/23 00:26:01;;;;;;;12.32;6.20;;;;;;;7.69;100.00;98669.31;5137357;28;20051;-65
2023/03/23 00:28:28;;;;;;;12.02;6.18;;;;;;;7.78;100.00;98736.19;5138650;27;20401;-69
2023/03/23 00:30:59;;;;;;;13.65;6.95;;;;;;;7.94;100.00;98751.72;5140907;28;20062;-59
2023/03/23 00:33:27;;;;;;;13.20;7.13;;;;;;;7.86;100.00;98802.63;5141166;28;20133;-65
2023/03/23 00:35:54;;;;;;;10.32;7.07;;;;;;;7.82;100.00;98804.47;5141131;27;20134;-60
2023/03/23 00:38:21;;;;;;;12.52;6.88;;;;;;;7.74;100.00;98806.25;5141738;28;20200;-61
2023/03/23 00:40:47;;;;;;;10.30;6.43;;;;;;;7.93;100.00;98826.56;5142129;28;20138;-60
2023/03/23 00:43:13;;;;;;;11.98;7.15;;;;;;;8.30;100.00;98774.31;5141127;28;20123;-68
2023/03/23 00:45:39;;;;;;;12.45;7.18;;;;;;;8.17;100.00;98751.84;5140623;28;20333;-60
2023/03/23 00:48:06;;;;;;;17.25;7.47;;;;;;;8.15;100.00;98703.03;5140953;28;20061;-65
2023/03/23 00:50:32;;;;;;;15.35;7.28;;;;;;;8.18;100.00;98726.88;5140320;28;20103;-64
2023/03/23 00:52:58;;;;;;;11.80;6.70;;;;;;;8.21;100.00;98733.56;5140324;28;20054;-68
2023/03/23 00:55:24;;;;;;;15.43;6.93;;;;;;;7.91;100.00;98766.09;5140659;28;20086;-69
2023/03/23 00:57:51;;;;;;;12.38;7.57;;;;;;;8.06;100.00;98776.16;5140527;28;20057;-69
2023/03/23 01:00:18;;;;;;;13.65;7.82;;;;;;;7.86;100.00;98758.97;5140634;28;20047;-61
2023/03/23 01:02:44;;;;;;;14.75;8.38;;;;;;;8.31;100.00;98770.44;5140346;28;20055;-64
2023/03/23 01:05:12;;;;;;;13.15;6.97;;;;;;;8.30;100.00;98727.88;5140408;27;20043;-69
2023/03/23 01:07:38;;;;;;;11.23;7.32;;;;;;;8.34;100.00;98653.06;5140470;28;20055;-67
2023/03/23 01:10:05;;;;;;;19.23;7.80;;;;;;;8.28;100.00;98635.41;5140455;28;20419;-63
2023/03/23 01:12:30;;;;;;;16.55;8.27;;;;;;;8.22;100.00;98669.59;5140208;28;20051;-63
2023/03/23 01:14:56;;;;;;;16.20;8.02;;;;;;;8.21;100.00;98701.59;5140698;28;20131;-59
2023/03/23 01:17:22;;;;;;;17.05;8.35;;;;;;;8.29;100.00;98729.03;5140009;28;20047;-65
2023/03/23 01:19:48;;;;;;;13.65;7.95;;;;;;;8.20;100.00;98737.47;5140415;28;20508;-66
2023/03/23 01:22:15;;;;;;;15.30;8.63;;;;;;;8.39;100.00;98701.16;5140196;28;20047;-69
2023/03/23 01:24:41;;;;;;;14.35;8.10;;;;;;;8.37;100.00;98693.31;5139875;28;20050;-69
2023/03/23 01:27:07;;;;;;;18.60;8.95;;;;;;;8.25;100.00;98698.94;5140163;28;20089;-67
2023/03/23 01:29:33;;;;;;;15.50;8.48;;;;;;;8.25;100.00;98759.00;5139962;28;20081;-63
2023/03/23 01:31:59;;;;;;;18.45;9.05;;;;;;;8.24;100.00;98738.31;5140092;28;20154;-66
2023/03/23 01:34:25;;;;;;;13.50;8.10;;;;;;;8.30;100.00;98717.78;5139659;27;20051;-68
2023/03/23 01:36:51;;;;;;;15.80;8.55;;;;;;;8.24;100.00;98716.47;5140014;28;20054;-67
2023/03/23 01:39:17;;;;;;;16.67;9.25;;;;;;;8.08;100.00;98705.63;5139650;27;20047;-63
2023/03/23 01:41:43;;;;;;;18.85;8.73;;;;;;;7.97;100.00;98735.44;5139597;28;20070;-69
2023/03/23 01:44:42;;;;;;;19.20;8.82;;;;;;;7.93;100.00;98780.16;5139662;28;20083;-63
2023/03/23 01:47:08;;;;;;;16.88;8.27;;;;;;;8.09;100.00;98804.69;5139532;28;20142;-65
2023/03/23 01:49:38;;;;;;;14.73;7.72;;;;;;;8.00;100.00;98786.59;5139602;28;20085;-62
2023/03/23 01:52:07;;;;;;;17.60;9.23;;;;;;;7.91;100.00;98779.75;5139593;28;20055;-64
2023/03/23 01:54:36;;;;;;;13.82;8.43;;;;;;;8.00;100.00;98804.91;5139822;28;20380;-64
2023/03/23 01:57:07;;;;;;;16.48;8.35;;;;;;;8.02;100.00;98808.84;5139425;28;20567;-70
2023/03/23 01:59:35;;;;;;;21.20;9.05;;;;;;;8.04;100.00;98789.38;5139716;28;20138;-66
2023/03/23 02:02:01;;;;;;;13.60;8.73;;;;;;;7.84;100.00;98794.03;5139442;28;20150;-60
2023/03/23 02:04:30;;;;;;;15.65;8.82;;;;;;;7.92;100.00;98823.03;5139903;27;20043;-64
2023/03/23 02:06:57;;;;;;;14.05;8.05;;;;;;;7.96;100.00;98834.03;5140498;28;20146;-66
2023/03/23 02:09:25;;;;;;;16.73;8.77;;;;;;;7.81;100.00;98815.78;5141608;28;20051;-64
2023/03/23 02:11:53;;;;;;;16.30;8.73;;;;;;;7.87;100.00;98842.44;5141142;28;20043;-58
2023/03/23 02:14:20;;;;;;;16.23;7.97;;;;;;;7.91;100.00;98832.38;5140539;28;20138;-69
2023/03/23 02:16:55;;;;;;;17.00;9.32;;;;;;;7.90;100.00;98825.34;5139436;28;20140;-59
2023/03/23 02:19:51;;;;;;;18.63;8.90;;;;;;;7.91;100.00;98826.94;5139092;28;20482;-62
2023/03/23 02:22:45;;;;;;;15.13;9.10;;;;;;;7.98;100.00;98799.78;5136150;28;20134;-59
2023/03/23 02:25:33;;;;;;;18.65;9.68;;;;;;;8.11;100.00;98778.63;5139474;28;20051;-64
2023/03/23 02:28:29;;;;;;;17.52;9.27;;;;;;;8.01;100.00;98785.44;5139052;28;20047;-58
2023/03/23 02:31:17;;;;;;;18.45;8.93;;;;;;;7.99;100.00;98779.53;5136757;28;20087;-56
2023/03/23 02:33:50;;;;;;;17.60;9.73;;;;;;;7.84;100.00;98777.66;5138788;28;20050;-66
2023/03/23 02:36:24;;;;;;;17.15;9.07;;;;;;;8.13;100.00;98821.94;5139173;27;20058;-63
2023/03/23 02:38:58;;;;;;;16.67;9.48;;;;;;;7.75;100.00;98831.63;5138992;28;20062;-60
2023/03/23 02:41:31;;;;;;;17.67;9.40;;;;;;;7.87;100.00;98886.09;5138671;28;20408;-59
2023/03/23 02:43:58;;;;;;;15.65;9.55;;;;;;;7.93;100.00;98892.06;5138801;28;20320;-62
2023/03/23 02:46:25;;;;;;;16.48;9.35;;;;;;;7.93;100.00;98925.63;5138705;28;20381;-59
2023/03/23 02:48:56;;;;;;;19.77;10.30;;;;;;;7.81;100.00;98938.56;5138824;28;20047;-67
2023/03/23 02:51:25;;;;;;;16.98;9.95;;;;;;;7.85;100.00;98953.09;5137732;27;20066;-59
2023/03/23 02:53:53;;;;;;;18.80;10.43;;;;;;;7.82;100.00;98976.41;5138645;28;20057;-62
2023/03/23 02:56:23;;;;;;;19.33;10.27;;;;;;;7.79;100.00;99002.47;5138469;28;20051;-59
2023/03/23 02:58:48;;;;;;;18.92;10.27;;;;;;;7.73;100.00;99012.06;5138864;28;20312;-67
2023/03/23 03:01:32;;;;;;;18.88;10.35;;;;;;;7.52;100.00;99020.47;5138614;28;20062;-63
2023/03/23 03:04:02;;;;;;;16.92;10.02;;;;;;;7.45;100.00;99014.03;5137673;28;20424;-68
2023/03/23 03:06:34;;;;;;;18.10;10.93;;;;;;;7.50;100.00;99017.31;5138588;27;20099;-68
2023/03/23 03:09:06;;;;;;;19.45;10.15;;;;;;;7.55;100.00;99013.53;5138186;28;20133;-69
2023/03/23 03:11:33;;;;;;;19.15;9.60;;;;;;;7.50;100.00;99022.75;5138554;28;20051;-65
2023/03/23 03:14:03;;;;;;;17.83;10.00;;;;;;;7.61;100.00;98997.69;5138464;28;20099;-66
2023/03/23 03:16:32;;;;;;;20.95;12.15;;;;;;;7.35;100.00;99004.41;5138608;28;20047;-63
2023/03/23 03:19:03;;;;;;;20.80;10.13;;;;;;;7.43;100.00;98991.75;5138104;28;20051;-66
2023/03/23 03:21:33;;;;;;;18.73;10.18;;;;;;;7.32;100.00;98986.78;5137979;28;20476;-62
2023/03/23 03:24:02;;;;;;;17.48;10.82;;;;;;;7.44;100.00;98979.72;5138277;28;20086;-60
2023/03/23 03:26:30;;;;;;;21.38;10.85;;;;;;;7.28;100.00;98983.19;5138142;28;20043;-63
2023/03/23 03:28:56;;;;;;;22.88;11.43;;;;;;;7.69;100.00;98975.69;5138036;28;20057;-68
2023/03/23 03:31:27;;;;;;;26.33;12.27;;;;;;;7.56;100.00;98982.34;5137966;28;20051;-63
2023/03/23 03:33:53;;;;;;;31.08;13.80;;;;;;;7.22;100.00;98981.84;5138214;28;20120;-62
2023/03/23 03:36:23;;;;;;;29.17;13.63;;;;;;;7.08;100.00;98971.31;5137934;27;20248;-60
2023/03/23 03:38:51;;;;;;;29.83;13.13;;;;;;;7.12;100.00;98955.06;5138379;28;20110;-65
2023/03/23 03:41:18;;;;;;;28.13;14.55;;;;;;;7.35;100.00;98952.59;5137851;28;20134;-63
2023/03/23 03:43:44;;;;;;;29.98;14.63;;;;;;;7.21;100.00;98938.56;5138256;28;20185;-64
2023/03/23 03:46:10;;;;;;;27.73;13.45;;;;;;;7.37;100.00;98944.84;5137970;28;20073;-67
2023/03/23 03:48:36;;;;;;;30.27;14.50;;;;;;;7.25;100.00;98953.88;5137895;28;20047;-60
2023/03/23 03:51:03;;;;;;;28.50;14.43;;;;;;;7.22;100.00;98951.84;5137803;28;20435;-59
2023/03/23 03:53:30;;;;;;;31.27;16.35;;;;;;;7.31;100.00;98938.84;5137903;28;20061;-68
2023/03/23 03:56:01;;;;;;;35.78;16.17;;;;;;;7.47;100.00;98951.75;5138072;28;20051;-66
2023/03/23 03:58:31;;;;;;;31.73;15.63;;;;;;;7.09;100.00;98939.41;5138248;28;20332;-64
2023/03/23 04:00:58;;;;;;;35.25;16.98;;;;;;;7.10;100.00;98934.72;5140367;28;20050;-67
2023/03/23 04:03:25;;;;;;;33.55;16.95;;;;;;;7.27;100.00;98921.59;5137844;27;20420;-60
2023/03/23 04:05:51;;;;;;;35.47;16.95;;;;;;;7.27;100.00;98918.88;5137726;27;20138;-62
2023/03/23 04:08:17;;;;;;;30.15;16.70;;;;;;;7.20;100.00;98924.16;5137328;28;20095;-60
2023/03/23 04:10:44;;;;;;;33.75;17.30;;;;;;;7.36;100.00;98918.72;5137825;28;20047;-69
2023/03/23 04:13:10;;;;;;;31.90;15.80;;;;;;;7.01;100.00;98913.09;5137372;28;20065;-68
2023/03/23 04:15:36;;;;;;;26.83;15.52;;;;;;;7.27;100.00;98897.06;5137176;28;20405;-67
2023/03/23 04:18:02;;;;;;;36.05;16.83;;;;;;;6.96;100.00;98899.69;5137256;28;20055;-61
2023/03/23 04:20:28;;;;;;;29.67;15.88;;;;;;;7.16;100.00;98892.47;5137102;28;20138;-66
2023/03/23 04:22:54;;;;;;;31.30;15.35;;;;;;;7.29;100.00;98904.88;5137561;28;20095;-64
2023/03/23 04:25:21;;;;;;;34.58;16.00;;;;;;;7.35;100.00;98922.59;5137292;28;20047;-63
2023/03/23 04:27:52;;;;;;;31.10;15.68;;;;;;;7.56;100.00;98930.53;5137548;28;20043;-68
2023/03/23 04:30:20;;;;;;;30.35;15.25;;;;;;;7.49;100.00;98946.72;5137172;28;20051;-60
2023/03/23 04:32:50;;;;;;;27.50;14.85;;;;;;;7.69;100.00;98950.34;5137360;28;20211;-65
2023/03/23 04:35:17;;;;;;;28.73;15.07;;;;;;;7.58;100.00;98955.53;5136979;27;20063;-62
2023/03/23 04:37:43;;;;;;;31.67;14.85;;;;;;;7.79;100.00;98961.53;5137464;28;20047;-62
2023/03/23 04:40:11;;;;;;;30.38;14.73;;;;;;;7.43;100.00;98967.19;5136835;28;20048;-69
2023/03/23 04:42:38;;;;;;;27.10;13.18;;;;;;;7.65;100.00;98968.56;5136820;28;20057;-60
2023/03/23 04:45:07;;;;;;;26.55;14.98;;;;;;;7.81;100.00;98972.13;5137169;28;20138;-65
2023/03/23 04:47:40;;;;;;;30.05;15.40;;;;;;;7.99;100.00;98976.06;5136969;28;20054;-59
2023/03/23 04:50:08;;;;;;;29.80;14.00;;;;;;;7.96;100.00;98967.78;5136921;28;20408;-63
2023/03/23 04:52:34;;;;;;;33.30;15.35;;;;;;;7.78;100.00;98970.09;5136740;28;20108;-65
2023/03/23 04:55:00;;;;;;;32.10;16.05;;;;;;;7.94;100.00;98968.16;5136902;28;20047;-65
2023/03/23 04:57:27;;;;;;;30.85;15.93;;;;;;;8.04;100.00;98966.06;5136560;28;20083;-67
2023/03/23 04:59:53;;;;;;;38.15;17.48;;;;;;;8.13;100.00;98975.66;5136961;28;20420;-61
2023/03/23 05:02:20;;;;;;;36.22;18.15;;;;;;;8.16;100.00;98985.06;5136462;28;20051;-61
2023/03/23 05:04:46;;;;;;;36.55;18.20;;;;;;;8.32;100.00;98979.59;5136443;27;20123;-62
2023/03/23 05:07:12;;;;;;;36.08;18.85;;;;;;;8.23;100.00;98977.84;5136429;28;20142;-59
2023/03/23 05:09:38;;;;;;;26.88;15.20;;;;;;;8.15;100.00;98976.06;5136653;28;20082;-65
2023/03/23 05:12:05;;;;;;;36.90;15.88;;;;;;;8.22;100.00;98981.72;5136577;28;20349;-66
2023/03/23 05:14:31;;;;;;;32.60;16.63;;;;;;;8.06;100.00;98977.41;5136453;27;20409;-62
2023/03/23 05:16:57;;;;;;;31.92;15.50;;;;;;;7.99;100.00;98973.34;5140308;28;20053;-66
2023/03/23 05:19:24;;;;;;;36.88;17.13;;;;;;;7.99;100.00;98972.56;5139938;28;20146;-66
2023/03/23 05:21:49;;;;;;;29.85;15.77;;;;;;;8.15;100.00;98967.09;5140134;28;20106;-66
2023/03/23 05:24:15;;;;;;;34.60;16.33;;;;;;;7.83;100.00;98967.09;5139778;28;20138;-68
2023/03/23 05:26:41;;;;;;;40.53;16.92;;;;;;;8.20;100.00;98951.25;5139979;28;20435;-64
2023/03/23 05:29:07;;;;;;;35.05;17.20;;;;;;;7.92;100.00;98947.81;5139667;28;20133;-62
2023/03/23 05:31:33;;;;;;;33.55;15.93;;;;;;;7.69;100.00;98942.16;5140105;28;20055;-57
2023/03/23 05:33:59;;;;;;;31.88;15.82;;;;;;;7.88;100.00;98939.53;5139566;28;20133;-61
2023/03/23 05:36:27;;;;;;;39.20;16.67;;;;;;;7.84;100.00;98935.94;5140074;27;20328;-61
2023/03/23 05:38:53;;;;;;;29.35;15.05;;;;;;;7.83;100.00;98937.09;5139621;28;20417;-59
2023/03/23 05:41:19;;;;;;;36.42;17.27;;;;;;;7.93;100.00;98936.56;5139431;28;20055;-61
2023/03/23 05:43:45;;;;;;;31.70;15.35;;;;;;;7.99;100.00;98948.78;5139704;28;20082;-60
2023/03/23 05:46:29;;;;;;;37.40;17.20;;;;;;;8.24;100.00;98948.59;5139457;28;20090;-65
2023/03/23 05:48:55;;;;;;;;;;;;;;;7.85;100.00;98942.97;5140057;28;20082;-65
2023/03/23 05:51:21;;;;;;;28.90;15.48;;;;;;;8.06;100.00;98952.81;5139309;28;20021;-67
2023/03/23 05:53:50;;;;;;;27.60;14.50;;;;;;;8.08;100.00;98954.06;5140061;28;20137;-67
2023/03/23 05:56:17;;;;;;;27.30;15.18;;;;;;;8.28;100.00;98959.59;5139337;28;20114;-73
2023/03/23 05:58:42;;;;;;;28.10;14.35;;;;;;;8.35;100.00;98962.50;5139671;28;20051;-67
2023/03/23 06:01:09;;;;;;;27.00;13.30;;;;;;;8.15;100.00;98956.16;5139231;28;20047;-58
2023/03/23 06:03:35;;;;;;;20.52;12.40;;;;;;;8.19;100.00;98966.03;5139274;28;20130;-67
2023/03/23 06:06:02;;;;;;;26.58;14.27;;;;;;;8.34;100.00;98961.72;5138722;27;20400;-67
2023/03/23 06:08:36;;;;;;;21.33;12.20;;;;;;;8.23;100.00;98958.72;5139011;28;20385;-65
2023/03/23 06:11:03;;;;;;;22.70;12.73;;;;;;;8.40;100.00;98959.53;5138826;28;20061;-64
2023/03/23 06:13:29;;;;;;;24.02;12.75;;;;;;;8.52;100.00;98955.88;5138908;28;20329;-68
2023/03/23 06:15:57;;;;;;;28.88;14.55;;;;;;;8.25;100.00;98955.63;5139362;28;20370;-66
2023/03/23 06:18:23;;;;;;;27.88;13.88;;;;;;;8.49;100.00;98957.38;5138868;28;20051;-68
2023/03/23 06:20:50;;;;;;;30.27;15.05;;;;;;;8.65;100.00;98963.59;5139269;28;20054;-65
2023/03/23 06:23:17;;;;;;;31.45;14.75;;;;;;;8.54;100.00;98943.47;5138095;28;20480;-69
2023/03/23 06:25:43;;;;;;;29.73;13.95;;;;;;;8.72;100.00;98925.50;5138967;27;20123;-66
2023/03/23 06:28:10;;;;;;;29.08;16.08;;;;;;;8.67;100.00;98916.81;5138524;28;20410;-67
2023/03/23 06:30:36;;;;;;;33.33;14.32;;;;;;;8.61;100.00;98894.44;5138571;28;20078;-68
2023/03/23 06:33:05;;;;;;;31.90;14.45;;;;;;;8.30;100.00;98908.94;5138454;28;20412;-65
2023/03/23 06:35:31;;;;;;;32.78;15.45;;;;;;;8.71;100.00;98926.66;5138448;27;20047;-67
2023/03/23 06:38:01;;;;;;;34.53;16.58;;;;;;;8.60;100.00;98931.09;5138528;28;20413;-70
2023/03/23 06:40:28;;;;;;;35.60;18.23;;;;;;;8.66;100.00;98942.53;5138477;28;20051;-68
2023/03/23 06:42:54;;;;;;;38.63;19.65;;;;;;;8.68;100.00;98942.97;5138622;28;20368;-68
2023/03/23 06:45:21;;;;;;;37.20;17.77;;;;;;;8.33;100.00;98946.47;5138340;28;20095;-68
2023/03/23 06:47:48;;;;;;;31.50;15.88;;;;;;;8.39;100.00;98960.66;5138570;28;20058;-68
2023/03/23 06:50:14;;;;;;;29.67;14.63;;;;;;;8.26;100.00;98949.00;5138274;28;20074;-69
2023/03/23 06:52:41;;;;;;;34.95;15.73;;;;;;;8.71;100.00;98955.94;5138882;28;20043;-68
2023/03/23 06:55:08;;;;;;;33.08;16.08;;;;;;;8.46;100.00;98947.16;5137944;28;20051;-64
2023/03/23 06:57:34;;;;;;;31.52;16.35;;;;;;;8.78;100.00;98939.69;5138379;28;20134;-67
2023/03/23 07:00:00;;;;;;;29.98;15.10;;;;;;;8.34;100.00;98937.13;5138164;28;20203;-68
2023/03/23 07:02:27;;;;;;;31.17;16.38;;;;;;;8.70;100.00;98946.94;5138061;28;20086;-64
2023/03/23 07:04:53;;;;;;;44.30;16.63;;;;;;;8.74;100.00;98938.81;5137997;27;20423;-64
2023/03/23 07:07:20;;;;;;;28.42;14.35;;;;;;;8.50;100.00;98937.13;5138077;28;20062;-68
2023/03/23 07:09:46;;;;;;;35.67;14.80;;;;;;;8.84;100.00;98946.44;5138509;28;20042;-69
2023/03/23 07:12:12;;;;;;;33.17;15.55;;;;;;;8.88;100.00;98933.63;5137993;28;20222;-66
2023/03/23 07:14:37;;;;;;;27.83;13.10;;;;;;;9.08;100.00;98917.25;5138147;28;20062;-66
2023/03/23 07:17:04;;;;;;;29.63;14.55;;;;;;;9.03;100.00;98907.41;5138507;28;20132;-65
2023/03/23 07:19:31;;;;;;;30.38;14.23;;;;;;;9.03;100.00;98892.91;5138430;28;20404;-63
2023/03/23 07:21:57;;;;;;;24.10;13.13;;;;;;;8.64;100.00;98899.19;5137849;28;20059;-67
2023/03/23 07:24:23;;;;;;;28.90;13.52;;;;;;;8.53;100.00;98919.22;5136708;28;20069;-66
2023/03/23 07:26:49;;;;;;;25.02;13.52;;;;;;;8.68;100.00;98923.84;5136611;28;20055;-66
2023/03/23 07:29:15;;;;;;;24.60;12.93;;;;;;;8.97;100.00;98924.44;5137549;28;20108;-64
2023/03/23 07:31:42;;;;;;;27.20;13.18;;;;;;;8.98;100.00;98915.88;5137520;28;20050;-66
2023/03/23 07:34:08;;;;;;;25.77;12.85;;;;;;;9.15;100.00;98917.38;5137589;28;20051;-65
2023/03/23 07:36:37;;;;;;;27.13;12.25;;;;;;;9.57;100.00;98908.41;5137156;27;20043;-65
2023/03/23 07:39:05;;;;;;;25.48;13.15;;;;;;;10.54;100.00;98730.59;5136910;27;20047;-64
2023/03/23 07:41:31;;;;;;;28.52;14.18;;;;;;;10.19;100.00;98645.25;5137576;28;20058;-65
2023/03/23 07:43:57;;;;;;;30.33;13.38;;;;;;;9.65;100.00;98636.38;5137856;28;20391;-66
2023/03/23 07:46:23;;;;;;;27.60;13.23;;;;;;;10.10;100.00;98684.69;5137208;28;20051;-64
2023/03/23 07:48:49;;;;;;;20.13;12.25;;;;;;;10.95;100.00;98587.22;5137695;28;20420;-67
2023/03/23 07:51:16;;;;;;;25.40;11.70;;;;;;;11.24;100.00;98316.56;5137279;28;20054;-66
2023/03/23 07:53:44;;;;;;;18.13;10.15;;;;;;;10.73;100.00;98062.66;5137712;28;20054;-67
2023/03/23 07:56:10;;;;;;;24.80;13.90;;;;;;;11.34;100.00;98044.16;5137503;28;20051;-70
2023/03/23 07:58:36;;;;;;;19.92;11.45;;;;;;;11.39;100.00;97955.13;5137249;28;20051;-68
2023/03/23 08:01:02;;;;;;;21.08;11.60;;;;;;;10.58;100.00;97953.06;5137436;28;20316;-66
2023/03/23 08:03:28;;;;;;;17.33;10.25;;;;;;;10.47;100.00;97930.38;5137137;28;20340;-70
2023/03/23 08:05:58;;;;;;;24.25;12.88;;;;;;;11.25;100.00;97994.41;5137358;27;20205;-67
2023/03/23 08:08:24;;;;;;;24.42;13.07;;;;;;;12.09;100.00;97809.53;5137282;28;20047;-66
2023/03/23 08:10:51;;;;;;;24.10;11.85;;;;;;;12.30;100.00;97596.97;5136980;28;20050;-66
2023/03/23 08:13:18;;;;;;;23.45;12.80;;;;;;;12.34;100.00;97457.56;5136707;28;20046;-66
2023/03/23 08:15:45;;;;;;;20.25;10.35;;;;;;;11.93;100.00;97420.16;5137208;28;20051;-65
2023/03/23 08:18:11;;;;;;;18.27;10.90;;;;;;;11.22;100.00;97488.47;5136959;28;20054;-65
2023/03/23 08:20:37;;;;;;;22.90;11.60;;;;;;;11.42;100.00;97559.97;5137483;28;20553;-69
2023/03/23 08:23:03;;;;;;;22.00;11.20;;;;;;;10.92;100.00;97604.34;5137148;28;20058;-64
2023/03/23 08:25:31;;;;;;;23.02;12.10;;;;;;;10.95;100.00;97654.88;5137005;28;20389;-68
2023/03/23 08:27:58;;;;;;;18.23;10.90;;;;;;;11.06;100.00;97639.91;5136952;28;20077;-68
2023/03/23 08:30:26;;;;;;;21.05;11.73;;;;;;;11.46;100.00;97651.28;5136979;28;20138;-70
2023/03/23 08:32:52;;;;;;;24.77;12.18;;;;;;;11.53;100.00;97708.84;5136860;28;20599;-68
2023/03/23 08:35:19;;;;;;;28.08;11.90;;;;;;;11.51;100.00;97650.06;5136658;27;20129;-66
2023/03/23 08:37:45;;;;;;;19.17;10.68;;;;;;;11.31;100.00;97603.22;5137093;28;20403;-65
2023/03/23 08:40:14;;;;;;;19.67;10.93;;;;;;;10.97;100.00;97660.75;5136743;28;20191;-65
2023/03/23 08:42:43;;;;;;;19.05;9.02;;;;;;;10.41;100.00;97712.00;5137150;28;20320;-69
2023/03/23 08:45:18;;;;;;;19.70;10.15;;;;;;;10.87;100.00;97765.78;5136918;28;20332;-69
2023/03/23 08:47:45;;;;;;;17.60;9.35;;;;;;;11.16;100.00;97745.22;5136429;28;20306;-64
2023/03/23 08:50:13;;;;;;;16.90;9.65;;;;;;;10.74;100.00;97790.13;5137401;27;20468;-67
2023/03/23 08:52:39;;;;;;;21.35;10.35;;;;;;;10.64;100.00;97786.25;5140335;28;20138;-64
2023/03/23 08:55:08;;;;;;;17.30;9.85;;;;;;;10.91;100.00;97810.41;5140440;28;20089;-67
2023/03/23 08:57:35;;;;;;;23.63;10.85;;;;;;;10.73;100.00;97857.06;5140346;28;20433;-70
2023/03/23 09:00:13;;;;;;;19.38;10.23;;;;;;;10.45;100.00;97795.72;5140392;28;20345;-70
2023/03/23 09:02:40;;;;;;;19.17;10.15;;;;;;;10.94;100.00;97861.72;5140148;28;20340;-66
2023/03/23 09:05:06;;;;;;;19.58;10.57;;;;;;;10.81;100.00;97861.38;5140329;27;20061;-65
2023/03/23 09:07:33;;;;;;;21.92;9.55;;;;;;;10.75;100.00;97803.44;5140080;28;20047;-66
2023/03/23 09:09:59;;;;;;;20.02;11.02;;;;;;;10.74;100.00;97810.09;5140455;28;20437;-69
2023/03/23 09:12:25;;;;;;;24.60;11.02;;;;;;;10.86;100.00;97792.41;5139939;28;20051;-67
2023/03/23 09:14:51;;;;;;;17.45;9.32;;;;;;;10.64;100.00;97846.56;5140575;28;20150;-64
2023/03/23 09:17:17;;;;;;;19.75;11.18;;;;;;;11.10;100.00;97859.28;5140247;28;20097;-68
2023/03/23 09:19:44;;;;;;;19.20;10.25;;;;;;;11.13;100.00;97806.38;5139962;28;20059;-69
2023/03/23 09:22:10;;;;;;;18.50;9.82;;;;;;;11.04;100.00;97782.13;5140158;28;20051;-67
2023/03/23 09:24:37;;;;;;;18.27;10.30;;;;;;;11.14;100.00;97783.25;5139927;28;20099;-66
2023/03/23 09:27:03;;;;;;;21.95;10.23;;;;;;;10.98;100.00;97744.56;5140019;28;20055;-69
2023/03/23 09:29:29;;;;;;;16.80;10.07;;;;;;;10.94;100.00;97793.94;5139668;28;20051;-65
2023/03/23 09:31:55;;;;;;;17.48;10.20;;;;;;;11.25;100.00;97729.06;5140060;28;20047;-65
2023/03/23 09:34:22;;;;;;;19.70;10.07;;;;;;;11.71;100.00;97746.31;5139360;27;20408;-66
2023/03/23 09:36:49;;;;;;;20.13;9.63;;;;;;;11.50;100.00;97610.09;5140195;28;20047;-64
2023/03/23 09:39:16;;;;;;;20.42;11.18;;;;;;;11.75;100.00;97670.97;5139617;28;20085;-65
2023/03/23 09:41:59;;;;;;;21.42;9.48;;;;;;;11.86;100.00;97579.50;5139913;28;20086;-69
2023/03/23 09:44:34;;;;;;;19.00;10.30;;;;;;;11.80;100.00;97564.66;5139514;28;20047;-68
2023/03/23 09:47:05;;;;;;;19.17;9.77;;;;;;;11.64;100.00;97581.69;5139300;28;20089;-66
2023/03/23 09:49:35;;;;;;;19.92;10.10;;;;;;;11.85;100.00;97592.44;5139573;28;20046;-68
2023/03/23 09:52:08;;;;;;;20.80;10.02;;;;;;;11.86;100.00;97541.84;5139383;28;20140;-66
2023/03/23 09:54:38;;;;;;;22.30;11.30;;;;;;;11.91;100.00;97530.38;5139481;28;20047;-69
2023/03/23 09:57:11;;;;;;;20.85;9.70;;;;;;;11.99;100.00;97544.78;5139072;28;20058;-69
2023/03/23 09:59:41;;;;;;;17.75;9.90;;;;;;;11.95;100.00;97546.81;5139519;28;20419;-65
2023/03/23 10:02:14;;;;;;;17.58;9.90;;;;;;;11.49;100.00;97567.34;5138579;27;20141;-66
2023/03/23 10:04:45;;;;;;;15.57;9.60;;;;;;;12.01;100.00;97633.06;5138684;27;20436;-65
2023/03/23 10:07:14;;;;;;;17.77;9.00;;;;;;;11.78;100.00;97567.78;5139267;28;20047;-65
2023/03/23 10:09:40;;;;;;;17.15;10.15;;;;;;;12.09;100.00;97562.31;5138938;28;20138;-68
2023/03/23 10:12:14;;;;;;;19.85;9.68;;;;;;;11.80;100.00;97527.00;5138756;28;20046;-68
2023/03/23 10:14:50;;;;;;;;;;;;;;;12.72;100.00;97524.03;5139338;28;20054;-69
2023/03/23 10:17:22;;;;;;;18.67;10.00;;;;;;;12.51;100.00;97396.00;5139220;28;20049;-69
2023/03/23 10:20:17;;;;;;;17.80;9.20;;;;;;;12.75;100.00;97363.72;5138868;28;20058;-66
2023/03/23 10:22:45;;;;;;;;;;;;;;;13.45;100.00;97326.91;5139166;28;20491;-64
2023/03/23 10:25:16;;;;;;;16.27;10.15;;;;;;;14.12;100.00;97315.41;5139265;28;20030;-67
2023/03/23 10:27:49;;;;;;;16.20;9.10;;;;;;;13.58;100.00;97349.78;5138680;28;20208;-65
2023/03/23 10:30:21;;;;;;;20.05;9.30;;;;;;;13.82;100.00;97325.59;5138824;28;20138;-65
2023/03/23 10:32:53;;;;;;;19.17;10.82;;;;;;;14.08;100.00;97332.06;5138664;28;20055;-69
2023/03/23 10:35:25;;;;;;;16.67;9.57;;;;;;;13.93;100.00;97355.66;5139016;27;20316;-67
2023/03/23 10:37:57;;;;;;;19.60;9.32;;;;;;;14.16;100.00;97346.44;5138221;28;20058;-59
2023/03/23 10:40:27;;;;;;;13.35;8.18;;;;;;;13.83;100.00;97338.19;5139050;28;20328;-67
2023/03/23 10:42:54;;;;;;;21.67;10.10;;;;;;;13.68;100.00;97325.97;5136454;28;20055;-65
2023/03/23 10:45:24;;;;;;;18.33;9.40;;;;;;;13.74;100.00;97329.75;5138510;28;20051;-63
2023/03/23 10:47:54;;;;;;;22.80;10.52;;;;;;;13.92;100.00;97332.06;5138735;28;20058;-63
2023/03/23 10:50:26;;;;;;;19.33;9.70;;;;;;;13.50;100.00;97333.88;5138461;28;20149;-64
2023/03/23 10:52:55;;;;;;;15.82;10.13;;;;;;;13.71;100.00;97302.31;5138246;28;20055;-66
2023/03/23 10:55:23;;;;;;;24.27;9.70;;;;;;;13.82;100.00;97294.53;5138171;28;20137;-69
2023/03/23 10:58:01;;;;;;;18.35;9.75;;;;;;;13.73;100.00;97310.91;5138544;28;20137;-65
2023/03/23 11:00:28;;;;;;;15.65;9.85;;;;;;;13.80;100.00;97288.72;5138249;28;20127;-65
2023/03/23 11:02:59;;;;;;;18.92;10.35;;;;;;;14.67;100.00;97310.06;5138461;28;20051;-64
2023/03/23 11:05:35;;;;;;;17.95;10.18;;;;;;;15.09;100.00;97343.91;5138594;27;20327;-65
2023/03/23 11:08:02;;;;;;;21.50;10.85;;;;;;;15.07;100.00;97373.94;5138094;28;20047;-67
2023/03/23 11:10:36;;;;;;;16.02;9.85;;;;;;;15.22;100.00;97366.78;5138018;28;20534;-65
2023/03/23 11:13:04;;;;;;;21.55;10.95;;;;;;;14.65;100.00;97379.44;5136913;27;20086;-64
2023/03/23 11:15:32;;;;;;;19.58;10.10;;;;;;;14.30;100.00;97359.06;5138299;28;20047;-66
2023/03/23 11:18:00;;;;;;;18.75;10.00;;;;;;;15.20;100.00;97358.19;5138006;28;20051;-67
2023/03/23 11:20:29;;;;;;;21.17;10.57;;;;;;;14.71;100.00;97382.44;5138347;28;20324;-68
2023/03/23 11:22:55;;;;;;;12.98;9.07;;;;;;;15.20;100.00;97365.69;5137673;28;20076;-64
2023/03/23 11:25:22;;;;;;;19.52;9.35;;;;;;;14.29;100.00;97336.22;5137742;28;20066;-68